KIFP/IFP METAR and TAF weather

Enter ICAO airport designator
Station Type Date Time Source
KIFP METAR 2020/11/28 19:52 UTC NOAA

KIFP 281952Z 35023KT 20SM SKC 17/M07 A3021


Station Type Date Time Source
KIFP Decoded METAR 2020/11/28 19:52 UTC NOAA

Bullhead City, Laughlin/Bullhead International Airport, AZ, United States (KIFP) 35-09-27N 114-33-34W
Nov 28, 2020 - 02:52 PM EST / 2020.11.28 1952 UTC
Wind: from the N (350 degrees) at 26 MPH (23 KT):0
Visibility: 20 mile(s):0
Sky conditions: clear
Temperature: 62 F (17 C)
Dew Point: 19 F (-7 C)
Relative Humidity: 18%
Pressure (altimeter): 30.21 in. Hg (1023 hPa)
ob: KIFP 281952Z 35023KT 20SM SKC 17/M07 A3021
cycle: 20

Station Type Date Time Source
KIFP TAF 2020/11/28 18:30 UTC NOAA

TAF KIFP 281728Z 2818/2918 35018G26KT P6SM SKC
FM282300 36014KT P6SM SKC
FM291400 36012G20KT P6SM SKC
FM291700 36020G30KT P6SM SKC

Example: see airport list